sensor_id;sensor_type;location;lat;lon;timestamp;pressure;altitude;pressure_sealevel;temperature;humidity
16793;BME280;8513;42.662;23.350;2023-05-24T00:02:06;94719.13;;;16.64;52.45
16793;BME280;8513;42.662;23.350;2023-05-24T00:04:32;94717.44;;;16.50;53.74
16793;BME280;8513;42.662;23.350;2023-05-24T00:06:58;94714.38;;;16.18;54.62
16793;BME280;8513;42.662;23.350;2023-05-24T00:09:28;94719.16;;;16.01;55.59
16793;BME280;8513;42.662;23.350;2023-05-24T00:11:54;94720.66;;;15.68;56.15
16793;BME280;8513;42.662;23.350;2023-05-24T00:14:19;94717.47;;;15.51;56.92
16793;BME280;8513;42.662;23.350;2023-05-24T00:16:45;94726.53;;;15.41;57.67
16793;BME280;8513;42.662;23.350;2023-05-24T00:19:10;94718.53;;;15.35;57.68
16793;BME280;8513;42.662;23.350;2023-05-24T00:21:36;94722.81;;;15.57;57.23
16793;BME280;8513;42.662;23.350;2023-05-24T00:24:01;94711.53;;;15.70;56.88
16793;BME280;8513;42.662;23.350;2023-05-24T00:26:27;94711.09;;;15.66;56.98
16793;BME280;8513;42.662;23.350;2023-05-24T00:28:52;94707.56;;;15.81;56.68
16793;BME280;8513;42.662;23.350;2023-05-24T00:31:18;94723.59;;;16.01;56.12
16793;BME280;8513;42.662;23.350;2023-05-24T00:33:43;94720.44;;;16.12;55.53
16793;BME280;8513;42.662;23.350;2023-05-24T00:36:08;94719.44;;;16.13;55.54
16793;BME280;8513;42.662;23.350;2023-05-24T00:38:34;94709.38;;;16.08;55.71
16793;BME280;8513;42.662;23.350;2023-05-24T00:40:59;94715.38;;;16.17;55.63
16793;BME280;8513;42.662;23.350;2023-05-24T00:43:25;94709.84;;;16.12;55.19
16793;BME280;8513;42.662;23.350;2023-05-24T00:46:14;94708.19;;;16.11;55.13
16793;BME280;8513;42.662;23.350;2023-05-24T00:48:40;94706.56;;;16.10;55.42
16793;BME280;8513;42.662;23.350;2023-05-24T00:51:06;94711.91;;;16.17;55.22
16793;BME280;8513;42.662;23.350;2023-05-24T00:53:32;94707.75;;;16.07;55.55
16793;BME280;8513;42.662;23.350;2023-05-24T00:55:58;94716.25;;;15.96;55.76
16793;BME280;8513;42.662;23.350;2023-05-24T00:58:24;94711.56;;;15.98;55.57
16793;BME280;8513;42.662;23.350;2023-05-24T01:00:57;94706.72;;;16.02;55.62
16793;BME280;8513;42.662;23.350;2023-05-24T01:03:24;94712.66;;;16.04;55.74
16793;BME280;8513;42.662;23.350;2023-05-24T01:05:51;94720.38;;;16.05;55.62
16793;BME280;8513;42.662;23.350;2023-05-24T01:13:51;94716.75;;;15.85;56.08
16793;BME280;8513;42.662;23.350;2023-05-24T01:16:23;94711.38;;;15.72;56.54
16793;BME280;8513;42.662;23.350;2023-05-24T01:18:53;94716.06;;;15.76;56.60
16793;BME280;8513;42.662;23.350;2023-05-24T01:27:04;94720.53;;;15.69;56.32
16793;BME280;8513;42.662;23.350;2023-05-24T01:29:31;94732.59;;;15.57;56.81
16793;BME280;8513;42.662;23.350;2023-05-24T01:31:57;94745.41;;;15.53;57.11
16793;BME280;8513;42.662;23.350;2023-05-24T01:34:26;94731.50;;;15.30;57.53
16793;BME280;8513;42.662;23.350;2023-05-24T01:36:52;94731.56;;;15.36;57.02
16793;BME280;8513;42.662;23.350;2023-05-24T01:39:19;94731.56;;;15.36;57.35
16793;BME280;8513;42.662;23.350;2023-05-24T01:49:43;94728.75;;;15.38;57.12
16793;BME280;8513;42.662;23.350;2023-05-24T01:52:15;94726.72;;;15.40;57.04
16793;BME280;8513;42.662;23.350;2023-05-24T01:54:46;94729.28;;;15.33;57.13
16793;BME280;8513;42.662;23.350;2023-05-24T01:57:15;94726.84;;;15.32;56.95
16793;BME280;8513;42.662;23.350;2023-05-24T01:59:43;94727.84;;;15.31;57.05
16793;BME280;8513;42.662;23.350;2023-05-24T02:02:10;94723.22;;;15.18;57.08
16793;BME280;8513;42.662;23.350;2023-05-24T02:04:36;94725.88;;;15.18;57.10
16793;BME280;8513;42.662;23.350;2023-05-24T02:07:01;94725.00;;;15.11;56.89
16793;BME280;8513;42.662;23.350;2023-05-24T02:09:27;94718.56;;;15.20;56.34
16793;BME280;8513;42.662;23.350;2023-05-24T02:11:52;94723.97;;;15.12;56.73
16793;BME280;8513;42.662;23.350;2023-05-24T02:14:18;94726.06;;;15.16;56.84
16793;BME280;8513;42.662;23.350;2023-05-24T02:16:45;94722.13;;;15.12;56.76
16793;BME280;8513;42.662;23.350;2023-05-24T02:19:14;94720.78;;;15.02;57.26
16793;BME280;8513;42.662;23.350;2023-05-24T02:21:39;94723.75;;;14.92;57.44
16793;BME280;8513;42.662;23.350;2023-05-24T02:24:05;94719.06;;;14.94;57.57
16793;BME280;8513;42.662;23.350;2023-05-24T02:26:32;94713.44;;;14.97;57.50
16793;BME280;8513;42.662;23.350;2023-05-24T02:28:57;94706.69;;;14.94;57.21
16793;BME280;8513;42.662;23.350;2023-05-24T02:31:23;94712.31;;;14.91;57.14
16793;BME280;8513;42.662;23.350;2023-05-24T02:33:49;94715.50;;;15.02;56.66
16793;BME280;8513;42.662;23.350;2023-05-24T02:36:15;94711.28;;;15.07;56.58
16793;BME280;8513;42.662;23.350;2023-05-24T02:38:40;94711.44;;;14.84;57.62
16793;BME280;8513;42.662;23.350;2023-05-24T02:41:06;94716.47;;;14.79;57.55
16793;BME280;8513;42.662;23.350;2023-05-24T02:43:33;94712.69;;;14.88;57.13
16793;BME280;8513;42.662;23.350;2023-05-24T02:45:58;94712.31;;;14.91;57.24
16793;BME280;8513;42.662;23.350;2023-05-24T02:48:24;94709.63;;;14.85;57.30
16793;BME280;8513;42.662;23.350;2023-05-24T02:50:49;94711.81;;;14.81;57.41
16793;BME280;8513;42.662;23.350;2023-05-24T02:53:15;94710.88;;;14.89;57.24
16793;BME280;8513;42.662;23.350;2023-05-24T02:55:40;94720.38;;;14.83;57.62
16793;BME280;8513;42.662;23.350;2023-05-24T02:58:08;94720.50;;;14.60;58.51
16793;BME280;8513;42.662;23.350;2023-05-24T03:00:33;94719.69;;;14.60;58.46
16793;BME280;8513;42.662;23.350;2023-05-24T03:02:59;94711.66;;;14.68;58.33
16793;BME280;8513;42.662;23.350;2023-05-24T03:05:27;94710.16;;;14.50;58.58
16793;BME280;8513;42.662;23.350;2023-05-24T03:07:52;94719.31;;;14.63;58.76
16793;BME280;8513;42.662;23.350;2023-05-24T03:10:18;94727.25;;;14.63;58.35
16793;BME280;8513;42.662;23.350;2023-05-24T03:12:43;94730.19;;;14.68;58.18
16793;BME280;8513;42.662;23.350;2023-05-24T03:15:09;94735.00;;;14.49;58.45
16793;BME280;8513;42.662;23.350;2023-05-24T03:17:34;94734.72;;;14.59;58.25
16793;BME280;8513;42.662;23.350;2023-05-24T03:20:00;94728.81;;;14.57;58.29
16793;BME280;8513;42.662;23.350;2023-05-24T03:22:25;94725.38;;;14.48;58.87
16793;BME280;8513;42.662;23.350;2023-05-24T03:24:51;94731.88;;;14.31;59.31
16793;BME280;8513;42.662;23.350;2023-05-24T03:27:16;94734.69;;;14.29;59.80
16793;BME280;8513;42.662;23.350;2023-05-24T03:29:42;94738.78;;;14.32;59.80
16793;BME280;8513;42.662;23.350;2023-05-24T03:32:07;94735.44;;;14.38;59.56
16793;BME280;8513;42.662;23.350;2023-05-24T03:34:32;94738.72;;;14.40;59.15
16793;BME280;8513;42.662;23.350;2023-05-24T03:36:58;94747.00;;;14.37;59.09
16793;BME280;8513;42.662;23.350;2023-05-24T03:39:23;94747.81;;;14.38;59.37
16793;BME280;8513;42.662;23.350;2023-05-24T03:41:49;94748.31;;;14.41;59.29
16793;BME280;8513;42.662;23.350;2023-05-24T03:44:14;94745.22;;;14.52;58.98
16793;BME280;8513;42.662;23.350;2023-05-24T03:46:40;94740.38;;;14.56;59.08
16793;BME280;8513;42.662;23.350;2023-05-24T03:49:06;94743.22;;;14.54;58.76
16793;BME280;8513;42.662;23.350;2023-05-24T03:51:31;94742.13;;;14.64;58.49
16793;BME280;8513;42.662;23.350;2023-05-24T03:53:57;94741.56;;;14.53;59.72
16793;BME280;8513;42.662;23.350;2023-05-24T03:56:23;94747.00;;;14.37;60.71
16793;BME280;8513;42.662;23.350;2023-05-24T03:58:49;94748.69;;;14.38;60.77
16793;BME280;8513;42.662;23.350;2023-05-24T04:01:16;94741.25;;;14.48;60.36
16793;BME280;8513;42.662;23.350;2023-05-24T04:03:42;94747.19;;;14.50;59.45
16793;BME280;8513;42.662;23.350;2023-05-24T04:06:10;94748.81;;;14.60;59.76
16793;BME280;8513;42.662;23.350;2023-05-24T04:08:36;94753.78;;;14.69;59.71
16793;BME280;8513;42.662;23.350;2023-05-24T04:11:01;94748.50;;;14.69;59.88
16793;BME280;8513;42.662;23.350;2023-05-24T04:13:27;94754.88;;;14.75;59.96
16793;BME280;8513;42.662;23.350;2023-05-24T04:15:52;94756.72;;;14.74;60.03
16793;BME280;8513;42.662;23.350;2023-05-24T04:18:18;94753.59;;;14.86;59.43
16793;BME280;8513;42.662;23.350;2023-05-24T04:20:43;94749.75;;;14.88;59.05
16793;BME280;8513;42.662;23.350;2023-05-24T04:23:08;94763.25;;;14.93;58.92
16793;BME280;8513;42.662;23.350;2023-05-24T04:25:34;94761.69;;;15.14;58.71
16793;BME280;8513;42.662;23.350;2023-05-24T04:28:00;94757.41;;;15.71;57.10
16793;BME280;8513;42.662;23.350;2023-05-24T04:30:27;94751.66;;;16.10;55.40
16793;BME280;8513;42.662;23.350;2023-05-24T04:32:55;94757.97;;;15.87;55.70
16793;BME280;8513;42.662;23.350;2023-05-24T04:35:21;94764.94;;;15.88;55.82
16793;BME280;8513;42.662;23.350;2023-05-24T04:37:46;94758.56;;;15.83;56.20
16793;BME280;8513;42.662;23.350;2023-05-24T04:40:14;94769.09;;;15.76;55.97
16793;BME280;8513;42.662;23.350;2023-05-24T04:42:40;94759.50;;;15.75;56.31
16793;BME280;8513;42.662;23.350;2023-05-24T04:45:06;94774.78;;;15.73;56.03
16793;BME280;8513;42.662;23.350;2023-05-24T04:47:32;94779.25;;;15.73;56.14
16793;BME280;8513;42.662;23.350;2023-05-24T04:49:58;94782.38;;;15.61;56.44
16793;BME280;8513;42.662;23.350;2023-05-24T04:52:23;94779.00;;;15.53;56.10
16793;BME280;8513;42.662;23.350;2023-05-24T04:54:48;94782.13;;;15.56;55.08
16793;BME280;8513;42.662;23.350;2023-05-24T04:57:15;94774.44;;;15.61;54.91
16793;BME280;8513;42.662;23.350;2023-05-24T04:59:41;94782.19;;;15.63;54.75
16793;BME280;8513;42.662;23.350;2023-05-24T05:02:06;94786.56;;;15.71;55.22
16793;BME280;8513;42.662;23.350;2023-05-24T05:04:32;94783.19;;;15.62;54.76
16793;BME280;8513;42.662;23.350;2023-05-24T05:06:57;94784.84;;;15.63;54.80
16793;BME280;8513;42.662;23.350;2023-05-24T05:09:23;94792.41;;;15.66;54.57
16793;BME280;8513;42.662;23.350;2023-05-24T05:11:49;94781.72;;;15.74;54.57
16793;BME280;8513;42.662;23.350;2023-05-24T05:14:14;94782.22;;;15.84;54.59
16793;BME280;8513;42.662;23.350;2023-05-24T05:16:41;94787.13;;;15.87;54.19
16793;BME280;8513;42.662;23.350;2023-05-24T05:19:06;94789.06;;;15.94;53.78
16793;BME280;8513;42.662;23.350;2023-05-24T05:21:33;94792.38;;;16.02;53.78
16793;BME280;8513;42.662;23.350;2023-05-24T05:23:59;94774.25;;;16.06;54.17
16793;BME280;8513;42.662;23.350;2023-05-24T05:26:26;94774.50;;;16.11;53.63
16793;BME280;8513;42.662;23.350;2023-05-24T05:28:51;94782.31;;;16.19;53.35
16793;BME280;8513;42.662;23.350;2023-05-24T05:31:19;94793.00;;;16.26;53.27
16793;BME280;8513;42.662;23.350;2023-05-24T05:33:44;94790.09;;;16.21;53.65
16793;BME280;8513;42.662;23.350;2023-05-24T05:36:10;94796.66;;;16.03;54.13
16793;BME280;8513;42.662;23.350;2023-05-24T05:38:35;94795.69;;;15.83;54.95
16793;BME280;8513;42.662;23.350;2023-05-24T05:41:00;94796.66;;;16.03;53.85
16793;BME280;8513;42.662;23.350;2023-05-24T05:43:26;94799.44;;;16.17;53.39
16793;BME280;8513;42.662;23.350;2023-05-24T05:45:53;94794.91;;;16.10;52.92
16793;BME280;8513;42.662;23.350;2023-05-24T05:48:18;94798.09;;;16.27;52.75
16793;BME280;8513;42.662;23.350;2023-05-24T05:50:44;94789.03;;;16.43;52.24
16793;BME280;8513;42.662;23.350;2023-05-24T05:53:09;94786.81;;;16.47;52.45
16793;BME280;8513;42.662;23.350;2023-05-24T05:55:35;94790.97;;;16.56;51.96
16793;BME280;8513;42.662;23.350;2023-05-24T05:58:00;94793.03;;;16.61;51.70
16793;BME280;8513;42.662;23.350;2023-05-24T06:00:26;94793.22;;;16.59;51.66
16793;BME280;8513;42.662;23.350;2023-05-24T06:02:51;94796.53;;;16.68;51.63
16793;BME280;8513;42.662;23.350;2023-05-24T06:05:17;94808.22;;;16.73;51.28
16793;BME280;8513;42.662;23.350;2023-05-24T06:07:43;94793.16;;;16.81;51.18
16793;BME280;8513;42.662;23.350;2023-05-24T06:10:10;94800.88;;;16.75;51.17
16793;BME280;8513;42.662;23.350;2023-05-24T06:12:36;94801.72;;;16.76;51.31
16793;BME280;8513;42.662;23.350;2023-05-24T06:15:03;94801.66;;;16.97;50.91
16793;BME280;8513;42.662;23.350;2023-05-24T06:17:30;94802.16;;;16.80;51.32
16793;BME280;8513;42.662;23.350;2023-05-24T06:19:56;94803.63;;;16.89;51.35
16793;BME280;8513;42.662;23.350;2023-05-24T06:22:21;94799.41;;;17.01;51.34
16793;BME280;8513;42.662;23.350;2023-05-24T06:24:47;94801.84;;;16.96;51.31
16793;BME280;8513;42.662;23.350;2023-05-24T06:27:13;94811.28;;;17.05;51.14
16793;BME280;8513;42.662;23.350;2023-05-24T06:29:39;94801.56;;;17.19;51.01
16793;BME280;8513;42.662;23.350;2023-05-24T06:32:05;94808.16;;;17.30;51.07
16793;BME280;8513;42.662;23.350;2023-05-24T06:34:30;94800.41;;;17.41;50.55
16793;BME280;8513;42.662;23.350;2023-05-24T06:36:55;94800.41;;;17.35;51.92
16793;BME280;8513;42.662;23.350;2023-05-24T06:39:22;94798.50;;;17.29;51.31
16793;BME280;8513;42.662;23.350;2023-05-24T06:41:49;94798.78;;;17.40;51.11
16793;BME280;8513;42.662;23.350;2023-05-24T06:44:16;94798.81;;;17.54;51.53
16793;BME280;8513;42.662;23.350;2023-05-24T06:46:41;94795.34;;;17.60;51.05
16793;BME280;8513;42.662;23.350;2023-05-24T06:49:07;94798.88;;;17.74;50.21
16793;BME280;8513;42.662;23.350;2023-05-24T06:51:32;94799.53;;;17.96;48.36
16793;BME280;8513;42.662;23.350;2023-05-24T06:53:58;94796.59;;;17.64;49.59
16793;BME280;8513;42.662;23.350;2023-05-24T06:56:24;94788.22;;;17.74;49.72
16793;BME280;8513;42.662;23.350;2023-05-24T06:58:50;94794.00;;;17.84;49.17
16793;BME280;8513;42.662;23.350;2023-05-24T07:01:16;94787.69;;;17.98;48.72
16793;BME280;8513;42.662;23.350;2023-05-24T07:03:42;94781.94;;;18.01;48.82
16793;BME280;8513;42.662;23.350;2023-05-24T07:06:08;94786.91;;;18.18;48.54
16793;BME280;8513;42.662;23.350;2023-05-24T07:08:38;94792.81;;;18.20;48.65
16793;BME280;8513;42.662;23.350;2023-05-24T07:11:03;94783.41;;;18.17;48.99
16793;BME280;8513;42.662;23.350;2023-05-24T07:13:29;94786.47;;;18.27;48.63
16793;BME280;8513;42.662;23.350;2023-05-24T07:15:54;94773.19;;;18.21;49.20
16793;BME280;8513;42.662;23.350;2023-05-24T07:18:19;94791.59;;;18.42;49.51
16793;BME280;8513;42.662;23.350;2023-05-24T07:20:45;94784.25;;;18.31;50.02
16793;BME280;8513;42.662;23.350;2023-05-24T07:23:11;94791.78;;;18.41;50.03
16793;BME280;8513;42.662;23.350;2023-05-24T07:25:36;94789.31;;;18.66;49.70
16793;BME280;8513;42.662;23.350;2023-05-24T07:28:02;94790.97;;;18.47;49.77
16793;BME280;8513;42.662;23.350;2023-05-24T07:30:27;94792.63;;;18.48;50.17
16793;BME280;8513;42.662;23.350;2023-05-24T07:32:53;94792.19;;;18.58;50.05
16793;BME280;8513;42.662;23.350;2023-05-24T07:35:18;94792.19;;;18.58;50.18
16793;BME280;8513;42.662;23.350;2023-05-24T07:37:44;94783.97;;;18.92;49.30
16793;BME280;8513;42.662;23.350;2023-05-24T07:40:10;94796.47;;;18.72;50.24
16793;BME280;8513;42.662;23.350;2023-05-24T07:42:39;94794.84;;;18.78;50.66
16793;BME280;8513;42.662;23.350;2023-05-24T07:45:06;94799.38;;;18.77;49.48
16793;BME280;8513;42.662;23.350;2023-05-24T07:47:33;94798.34;;;18.85;50.17
16793;BME280;8513;42.662;23.350;2023-05-24T07:49:59;94798.13;;;18.86;49.32
16793;BME280;8513;42.662;23.350;2023-05-24T07:52:25;94794.22;;;18.95;49.87
16793;BME280;8513;42.662;23.350;2023-05-24T07:54:50;94785.38;;;18.95;49.47
16793;BME280;8513;42.662;23.350;2023-05-24T07:57:17;94788.47;;;18.99;49.28
16793;BME280;8513;42.662;23.350;2023-05-24T07:59:43;94785.38;;;19.02;48.88
16793;BME280;8513;42.662;23.350;2023-05-24T08:02:08;94790.50;;;19.03;48.27
16793;BME280;8513;42.662;23.350;2023-05-24T08:04:36;94792.31;;;19.09;47.76
16793;BME280;8513;42.662;23.350;2023-05-24T08:07:01;94791.66;;;19.21;48.31
16793;BME280;8513;42.662;23.350;2023-05-24T08:09:27;94793.94;;;19.17;47.27
16793;BME280;8513;42.662;23.350;2023-05-24T08:11:54;94793.53;;;19.20;46.60
16793;BME280;8513;42.662;23.350;2023-05-24T08:14:21;94795.72;;;19.30;46.50
16793;BME280;8513;42.662;23.350;2023-05-24T08:16:46;94791.22;;;19.30;46.41
16793;BME280;8513;42.662;23.350;2023-05-24T08:19:12;94788.75;;;19.35;46.12
16793;BME280;8513;42.662;23.350;2023-05-24T08:21:37;94783.38;;;19.42;44.33
16793;BME280;8513;42.662;23.350;2023-05-24T08:24:02;94780.25;;;19.52;43.42
16793;BME280;8513;42.662;23.350;2023-05-24T08:26:28;94781.28;;;19.51;43.80
16793;BME280;8513;42.662;23.350;2023-05-24T08:28:53;94783.13;;;19.57;44.89
16793;BME280;8513;42.662;23.350;2023-05-24T08:31:19;94787.84;;;19.55;43.79
16793;BME280;8513;42.662;23.350;2023-05-24T08:33:46;94780.22;;;19.58;43.00
16793;BME280;8513;42.662;23.350;2023-05-24T08:36:15;94785.13;;;19.68;43.82
16793;BME280;8513;42.662;23.350;2023-05-24T08:38:40;94791.00;;;19.83;43.26
16793;BME280;8513;42.662;23.350;2023-05-24T08:41:06;94786.03;;;19.87;42.85
16793;BME280;8513;42.662;23.350;2023-05-24T08:43:32;94779.63;;;19.95;42.50
16793;BME280;8513;42.662;23.350;2023-05-24T08:45:58;94781.66;;;19.99;41.67
16793;BME280;8513;42.662;23.350;2023-05-24T08:48:27;94775.91;;;19.96;40.86
16793;BME280;8513;42.662;23.350;2023-05-24T08:50:52;94779.19;;;19.98;41.70
16793;BME280;8513;42.662;23.350;2023-05-24T08:53:19;94784.44;;;20.11;41.64
16793;BME280;8513;42.662;23.350;2023-05-24T08:55:47;94774.19;;;20.08;42.31
16793;BME280;8513;42.662;23.350;2023-05-24T08:58:14;94779.53;;;20.08;41.90
16793;BME280;8513;42.662;23.350;2023-05-24T09:00:41;94772.16;;;20.10;41.48
16793;BME280;8513;42.662;23.350;2023-05-24T09:03:06;94782.75;;;20.17;41.60
16793;BME280;8513;42.662;23.350;2023-05-24T09:05:32;94778.41;;;20.22;40.38
16793;BME280;8513;42.662;23.350;2023-05-24T09:07:59;94779.81;;;20.25;38.14
16793;BME280;8513;42.662;23.350;2023-05-24T09:10:25;94775.00;;;20.34;39.60
16793;BME280;8513;42.662;23.350;2023-05-24T09:12:55;94770.88;;;20.38;37.49
16793;BME280;8513;42.662;23.350;2023-05-24T09:15:21;94772.03;;;20.74;37.25
16793;BME280;8513;42.662;23.350;2023-05-24T09:17:47;94771.34;;;20.60;38.99
16793;BME280;8513;42.662;23.350;2023-05-24T09:20:12;94771.88;;;20.68;36.91
16793;BME280;8513;42.662;23.350;2023-05-24T09:22:41;94778.25;;;20.67;37.21
16793;BME280;8513;42.662;23.350;2023-05-24T09:25:08;94775.38;;;20.69;36.45
16793;BME280;8513;42.662;23.350;2023-05-24T09:27:34;94771.88;;;20.68;35.63
16793;BME280;8513;42.662;23.350;2023-05-24T09:30:01;94766.63;;;20.80;36.47
16793;BME280;8513;42.662;23.350;2023-05-24T09:32:29;94770.03;;;21.06;37.53
16793;BME280;8513;42.662;23.350;2023-05-24T09:34:56;94766.34;;;21.07;35.50
16793;BME280;8513;42.662;23.350;2023-05-24T09:37:23;94768.78;;;21.08;34.46
16793;BME280;8513;42.662;23.350;2023-05-24T09:39:51;94760.69;;;21.33;31.24
16793;BME280;8513;42.662;23.350;2023-05-24T09:42:18;94764.16;;;21.34;32.70
16793;BME280;8513;42.662;23.350;2023-05-24T09:44:47;94765.50;;;21.43;31.64
16793;BME280;8513;42.662;23.350;2023-05-24T09:47:13;94761.72;;;21.51;33.31
16793;BME280;8513;42.662;23.350;2023-05-24T09:49:40;94755.41;;;21.75;32.23
16793;BME280;8513;42.662;23.350;2023-05-24T09:52:05;94754.00;;;21.73;33.47
16793;BME280;8513;42.662;23.350;2023-05-24T09:54:31;94753.28;;;21.96;33.88
16793;BME280;8513;42.662;23.350;2023-05-24T09:57:04;94754.53;;;21.93;33.40
16793;BME280;8513;42.662;23.350;2023-05-24T09:59:32;94758.97;;;21.99;32.41
16793;BME280;8513;42.662;23.350;2023-05-24T10:02:09;94755.72;;;21.97;33.02
16793;BME280;8513;42.662;23.350;2023-05-24T10:04:35;94758.59;;;22.26;33.02
16793;BME280;8513;42.662;23.350;2023-05-24T10:07:01;94751.75;;;22.30;34.68
16793;BME280;8513;42.662;23.350;2023-05-24T10:09:28;94747.44;;;22.53;35.33
16793;BME280;8513;42.662;23.350;2023-05-24T10:12:00;94748.63;;;22.57;30.51
16793;BME280;8513;42.662;23.350;2023-05-24T10:14:30;94748.84;;;22.43;31.45
16793;BME280;8513;42.662;23.350;2023-05-24T10:16:57;94744.88;;;22.58;32.12
16793;BME280;8513;42.662;23.350;2023-05-24T10:19:22;94735.66;;;22.89;33.46
16793;BME280;8513;42.662;23.350;2023-05-24T10:21:48;94742.09;;;23.00;32.37
16793;BME280;8513;42.662;23.350;2023-05-24T10:24:16;94746.13;;;23.14;31.96
16793;BME280;8513;42.662;23.350;2023-05-24T10:26:44;94743.41;;;23.38;29.56
16793;BME280;8513;42.662;23.350;2023-05-24T10:29:23;94743.41;;;23.38;30.43
16793;BME280;8513;42.662;23.350;2023-05-24T10:31:52;94747.03;;;23.60;29.82
16793;BME280;8513;42.662;23.350;2023-05-24T10:34:19;94746.81;;;23.62;31.93
16793;BME280;8513;42.662;23.350;2023-05-24T10:36:45;94743.06;;;23.63;32.29
16793;BME280;8513;42.662;23.350;2023-05-24T10:39:11;94733.94;;;23.75;30.27
16793;BME280;8513;42.662;23.350;2023-05-24T10:41:40;94733.56;;;23.84;30.96
16793;BME280;8513;42.662;23.350;2023-05-24T10:44:10;94722.75;;;23.95;28.62
16793;BME280;8513;42.662;23.350;2023-05-24T10:47:09;94723.16;;;23.87;27.38
16793;BME280;8513;42.662;23.350;2023-05-24T10:49:55;94718.19;;;23.96;30.04
16793;BME280;8513;42.662;23.350;2023-05-24T10:52:33;94713.00;;;24.40;28.23
16793;BME280;8513;42.662;23.350;2023-05-24T10:55:07;94713.09;;;24.11;29.88
16793;BME280;8513;42.662;23.350;2023-05-24T10:57:34;94714.22;;;24.15;27.21
16793;BME280;8513;42.662;23.350;2023-05-24T11:02:50;94700.06;;;24.20;29.69
16793;BME280;8513;42.662;23.350;2023-05-24T11:05:16;94697.94;;;24.39;29.91
16793;BME280;8513;42.662;23.350;2023-05-24T11:07:42;94697.84;;;24.68;27.78
16793;BME280;8513;42.662;23.350;2023-05-24T11:10:12;94706.25;;;24.93;28.04
16793;BME280;8513;42.662;23.350;2023-05-24T11:12:39;94691.44;;;24.91;28.43
16793;BME280;8513;42.662;23.350;2023-05-24T11:15:08;94701.25;;;24.80;30.08
16793;BME280;8513;42.662;23.350;2023-05-24T11:20:37;94700.34;;;25.13;26.46
16793;BME280;8513;42.662;23.350;2023-05-24T11:23:03;94691.53;;;25.18;29.33
16793;BME280;8513;42.662;23.350;2023-05-24T11:25:28;94700.97;;;25.20;29.20
16793;BME280;8513;42.662;23.350;2023-05-24T11:27:57;94692.78;;;25.32;27.36
16793;BME280;8513;42.662;23.350;2023-05-24T11:30:23;94688.94;;;25.50;27.44
16793;BME280;8513;42.662;23.350;2023-05-24T11:32:48;94690.00;;;25.49;26.70
16793;BME280;8513;42.662;23.350;2023-05-24T11:35:14;94690.06;;;25.54;26.30
16793;BME280;8513;42.662;23.350;2023-05-24T11:37:40;94685.31;;;25.61;26.49
16793;BME280;8513;42.662;23.350;2023-05-24T11:40:07;94687.81;;;25.73;25.86
16793;BME280;8513;42.662;23.350;2023-05-24T11:42:36;94687.59;;;26.02;26.09
16793;BME280;8513;42.662;23.350;2023-05-24T11:45:07;94685.88;;;25.90;27.75
16793;BME280;8513;42.662;23.350;2023-05-24T11:47:36;94678.91;;;25.94;26.94
16793;BME280;8513;42.662;23.350;2023-05-24T11:50:01;94681.44;;;26.06;27.22
16793;BME280;8513;42.662;23.350;2023-05-24T11:52:27;94680.41;;;26.12;26.56
16793;BME280;8513;42.662;23.350;2023-05-24T11:54:53;94675.63;;;26.20;27.44
16793;BME280;8513;42.662;23.350;2023-05-24T11:57:25;94667.88;;;26.28;25.45
16793;BME280;8513;42.662;23.350;2023-05-24T11:59:53;94666.25;;;26.32;26.03
16793;BME280;8513;42.662;23.350;2023-05-24T12:02:19;94665.53;;;26.42;26.36
16793;BME280;8513;42.662;23.350;2023-05-24T12:04:45;94659.16;;;26.53;25.87
16793;BME280;8513;42.662;23.350;2023-05-24T12:07:10;94668.69;;;26.66;26.52
16793;BME280;8513;42.662;23.350;2023-05-24T12:09:39;94663.06;;;26.78;26.91
16793;BME280;8513;42.662;23.350;2023-05-24T12:12:05;94661.22;;;26.89;28.67
16793;BME280;8513;42.662;23.350;2023-05-24T12:14:32;94658.91;;;27.02;26.39
16793;BME280;8513;42.662;23.350;2023-05-24T12:16:58;94659.75;;;27.13;27.53
16793;BME280;8513;42.662;23.350;2023-05-24T12:19:29;94651.34;;;27.10;25.03
16793;BME280;8513;42.662;23.350;2023-05-24T12:21:56;94655.34;;;27.02;26.21
16793;BME280;8513;42.662;23.350;2023-05-24T12:24:25;94650.34;;;27.26;26.02
16793;BME280;8513;42.662;23.350;2023-05-24T12:26:51;94646.56;;;27.17;25.08
16793;BME280;8513;42.662;23.350;2023-05-24T12:29:18;94648.41;;;27.16;24.69
16793;BME280;8513;42.662;23.350;2023-05-24T12:31:46;94644.31;;;27.03;24.41
16793;BME280;8513;42.662;23.350;2023-05-24T12:34:17;94634.72;;;26.65;24.33
16793;BME280;8513;42.662;23.350;2023-05-24T12:36:43;94636.91;;;26.73;26.88
16793;BME280;8513;42.662;23.350;2023-05-24T12:39:22;94638.69;;;27.15;26.31
16793;BME280;8513;42.662;23.350;2023-05-24T12:41:52;94632.00;;;27.23;25.24
16793;BME280;8513;42.662;23.350;2023-05-24T12:44:26;94633.78;;;27.02;27.11
16793;BME280;8513;42.662;23.350;2023-05-24T12:46:53;94637.59;;;27.06;23.65
16793;BME280;8513;42.662;23.350;2023-05-24T12:49:18;94627.16;;;26.67;24.81
16793;BME280;8513;42.662;23.350;2023-05-24T12:51:44;94630.81;;;26.98;25.18
16793;BME280;8513;42.662;23.350;2023-05-24T12:54:10;94627.88;;;27.15;24.34
16793;BME280;8513;42.662;23.350;2023-05-24T12:56:35;94634.47;;;27.30;24.98
16793;BME280;8513;42.662;23.350;2023-05-24T12:59:01;94628.69;;;27.05;24.72
16793;BME280;8513;42.662;23.350;2023-05-24T13:01:26;94630.44;;;27.37;25.32
16793;BME280;8513;42.662;23.350;2023-05-24T13:03:52;94622.38;;;27.68;24.84
16793;BME280;8513;42.662;23.350;2023-05-24T13:06:18;94628.91;;;27.98;25.39
16793;BME280;8513;42.662;23.350;2023-05-24T13:08:43;94623.50;;;28.08;25.82
16793;BME280;8513;42.662;23.350;2023-05-24T13:11:09;94621.03;;;28.37;22.55
16793;BME280;8513;42.662;23.350;2023-05-24T13:13:35;94614.81;;;28.42;24.88
16793;BME280;8513;42.662;23.350;2023-05-24T13:16:01;94613.97;;;28.67;23.14
16793;BME280;8513;42.662;23.350;2023-05-24T13:18:26;94610.72;;;28.70;23.13
16793;BME280;8513;42.662;23.350;2023-05-24T13:20:52;94604.75;;;28.73;26.68
16793;BME280;8513;42.662;23.350;2023-05-24T13:23:17;94604.19;;;28.76;23.37